createdAt,value
2018-06-28T04:50:36.925Z,97899.00
2018-06-28T04:53:47.364Z,97886.00
2018-06-28T04:56:39.179Z,97892.00
2018-06-28T04:59:35.659Z,97891.00
2018-06-28T05:08:19.316Z,97877.00
2018-06-28T05:10:57.197Z,97886.00
2018-06-28T05:13:38.185Z,97877.00
2018-06-28T05:16:28.067Z,97881.00
2018-06-28T05:19:00.373Z,97875.00
2018-06-28T05:21:47.677Z,97873.00
2018-06-28T05:24:31.887Z,97877.00
2018-06-28T05:27:39.436Z,97882.00
2018-06-28T05:46:19.822Z,97883.00
2018-06-28T05:49:20.336Z,97875.00
2018-06-28T05:51:59.806Z,97875.00
2018-06-28T06:00:53.353Z,97887.00
2018-06-28T06:06:45.815Z,97876.00
2018-06-28T06:09:16.997Z,97879.00
2018-06-28T06:12:41.190Z,97882.00
2018-06-28T06:21:36.555Z,97871.00
2018-06-28T06:33:31.728Z,97862.00
2018-06-28T06:37:21.557Z,97855.00
2018-06-28T06:40:19.715Z,97856.00
2018-06-28T07:06:08.184Z,97833.00
2018-06-28T07:08:39.720Z,97834.00
2018-06-28T07:32:18.007Z,97817.00
2018-06-28T07:34:57.808Z,97815.00
2018-06-28T07:37:48.456Z,97818.00
2018-06-28T07:43:54.256Z,97819.00
2018-06-28T07:57:37.899Z,97810.00
2018-06-28T08:18:25.534Z,97795.00
2018-06-28T08:24:37.621Z,97780.00
2018-06-28T08:37:34.556Z,97773.00
2018-06-28T08:47:30.111Z,97775.00
2018-06-28T08:53:07.548Z,97752.00
2018-06-28T08:55:58.386Z,97770.00
2018-06-28T08:58:32.804Z,97755.00
2018-06-28T09:01:22.885Z,97762.00
2018-06-28T09:04:11.796Z,97746.00
2018-06-28T09:10:32.096Z,97748.00
2018-06-28T09:13:14.111Z,97761.00
2018-06-28T09:55:05.370Z,97654.00
2018-06-28T09:58:06.511Z,97702.00
2018-06-28T10:04:42.620Z,97694.00
2018-06-28T10:43:27.265Z,97675.00
2018-06-28T11:25:30.743Z,97628.00
2018-06-28T11:31:26.917Z,97613.00
2018-06-28T12:02:07.720Z,97575.00
2018-06-28T12:32:08.314Z,97582.00
2018-06-28T12:43:48.289Z,97596.00
2018-06-28T12:46:46.922Z,97599.00
2018-06-28T12:50:36.565Z,97598.00
2018-06-28T14:44:53.180Z,97613.00
2018-06-28T14:47:29.251Z,97599.00
2018-06-28T15:09:26.134Z,97588.00
2018-06-28T15:12:34.490Z,97583.00
2018-06-28T15:19:16.934Z,97582.00
2018-06-28T15:25:45.365Z,97573.00
2018-06-28T15:28:41.501Z,97579.00
2018-06-28T15:38:02.772Z,97569.00
2018-06-28T15:40:48.188Z,97600.00
2018-06-28T15:43:37.586Z,97570.00
2018-06-28T15:46:10.938Z,97583.00
2018-06-28T15:49:13.663Z,97576.00
2018-06-28T15:58:58.647Z,97551.00
2018-06-28T16:17:40.516Z,97557.00
2018-06-28T16:20:15.785Z,97548.00
2018-06-28T16:22:47.396Z,97521.00
2018-06-28T16:42:01.592Z,97551.00
2018-06-28T16:45:15.825Z,97560.00
2018-06-28T16:48:23.172Z,97544.00
2018-06-28T16:51:24.067Z,97535.00
2018-06-28T16:54:21.276Z,97534.00
2018-06-28T16:57:22.357Z,97531.00
2018-06-28T16:59:58.751Z,97534.00
2018-06-28T17:02:39.072Z,97531.00
2018-06-28T17:05:33.100Z,97526.00
2018-06-28T17:08:33.848Z,97523.00
2018-06-28T17:15:38.084Z,97510.00
2018-06-28T17:18:13.088Z,97519.00
2018-06-28T17:20:54.355Z,97512.00
2018-06-28T17:23:29.843Z,97511.00
2018-06-28T17:26:16.874Z,97514.00
2018-06-28T17:30:56.940Z,97515.00
2018-06-28T17:34:26.713Z,97512.00
2018-06-28T17:37:02.158Z,97511.00
2018-06-28T17:42:17.855Z,97510.00
2018-06-28T17:45:02.324Z,97510.00
2018-06-28T17:51:02.937Z,97502.00
2018-06-28T17:56:51.199Z,97502.00
2018-06-28T17:59:25.221Z,97503.00
2018-06-28T18:01:58.657Z,97501.00
2018-06-28T18:05:06.371Z,97509.00
2018-06-28T18:07:59.293Z,97497.00
2018-06-28T18:11:54.395Z,97498.00
2018-06-28T18:14:59.694Z,97502.00
2018-06-28T18:17:36.221Z,97496.00
2018-06-28T18:20:14.702Z,97503.00
2018-06-28T18:22:51.100Z,97500.00
2018-06-28T18:25:42.832Z,97495.00
2018-06-28T18:28:20.929Z,97495.00
2018-06-28T18:31:17.910Z,97496.00
2018-06-28T18:34:03.448Z,97503.00
2018-06-28T18:36:38.109Z,97494.00
2018-06-28T18:39:20.340Z,97491.00
2018-06-28T18:41:52.196Z,97484.00
2018-06-28T18:44:38.030Z,97486.00
2018-06-28T18:47:08.643Z,97485.00
2018-06-28T18:49:44.441Z,97493.00
2018-06-28T18:52:46.563Z,97499.00
2018-06-28T18:55:37.886Z,97504.00
2018-06-28T18:58:16.395Z,97504.00
2018-06-28T19:00:50.702Z,97503.00
2018-06-28T19:03:48.997Z,97500.00
2018-06-28T19:06:29.123Z,97499.00
2018-06-28T19:09:16.188Z,97498.00
2018-06-28T19:11:54.357Z,97504.00
2018-06-28T19:14:40.489Z,97509.00
2018-06-28T19:17:17.369Z,97517.00
2018-06-28T19:20:01.832Z,97510.00
2018-06-28T19:22:55.849Z,97499.00
2018-06-28T19:25:41.398Z,97495.00
2018-06-28T19:28:19.152Z,97505.00
2018-06-28T19:31:00.153Z,97496.00
2018-06-28T19:33:49.310Z,97498.00
2018-06-28T19:36:29.660Z,97505.00
2018-06-28T19:39:06.739Z,97496.00
2018-06-28T19:44:54.502Z,97509.00
2018-06-28T19:47:27.364Z,97501.00
2018-06-28T19:50:16.381Z,97513.00
2018-06-28T19:53:25.348Z,97512.00
2018-06-28T19:55:57.612Z,97516.00
2018-06-28T19:58:31.100Z,97512.00
2018-06-28T20:01:07.658Z,97516.00
2018-06-28T20:03:44.806Z,97516.00
2018-06-28T20:06:15.266Z,97510.00
2018-06-28T20:08:55.690Z,97511.00
2018-06-28T20:12:09.107Z,97516.00
2018-06-28T20:14:49.837Z,97515.00
2018-06-28T20:17:26.608Z,97520.00
2018-06-28T20:20:09.261Z,97519.00
2018-06-28T20:22:43.220Z,97522.00
2018-06-28T20:25:17.531Z,97516.00
2018-06-28T20:31:24.886Z,97513.00
2018-06-28T20:34:01.194Z,97517.00
2018-06-28T20:36:31.751Z,97526.00
2018-06-28T20:39:12.099Z,97523.00
2018-06-28T20:41:43.862Z,97523.00
2018-06-28T20:44:27.586Z,97524.00
2018-06-28T20:47:03.767Z,97522.00
2018-06-28T20:49:40.155Z,97520.00
2018-06-28T20:52:13.169Z,97515.00
2018-06-28T20:54:47.422Z,97525.00
2018-06-28T20:57:24.339Z,97532.00
2018-06-28T20:59:59.637Z,97524.00
2018-06-28T21:02:35.064Z,97536.00
2018-06-28T21:05:10.564Z,97538.00
2018-06-28T21:10:36.142Z,97533.00
2018-06-28T21:13:09.499Z,97534.00
2018-06-28T21:15:53.640Z,97535.00
2018-06-28T21:18:26.328Z,97540.00
2018-06-28T21:21:04.661Z,97536.00
2018-06-28T21:23:39.554Z,97539.00
2018-06-28T21:26:12.409Z,97542.00
2018-06-28T21:28:44.312Z,97534.00
2018-06-28T21:31:15.534Z,97530.00
2018-06-28T21:33:56.117Z,97534.00
2018-06-28T21:36:31.230Z,97527.00
2018-06-28T21:39:07.158Z,97533.00
2018-06-28T21:41:43.895Z,97534.00
2018-06-28T21:44:21.473Z,97525.00
2018-06-28T21:46:54.429Z,97521.00
2018-06-28T21:49:25.699Z,97520.00
2018-06-28T21:52:08.869Z,97518.00
2018-06-28T21:54:47.884Z,97526.00
2018-06-28T21:57:28.999Z,97516.00
2018-06-28T22:00:06.958Z,97524.00
2018-06-28T22:02:41.977Z,97523.00
2018-06-28T22:05:23.249Z,97521.00
2018-06-28T22:07:56.056Z,97524.00
2018-06-28T22:10:32.176Z,97517.00
2018-06-28T22:13:07.827Z,97518.00
2018-06-28T22:15:39.740Z,97512.00
2018-06-28T22:18:11.362Z,97500.00
2018-06-28T22:20:42.369Z,97503.00
2018-06-28T22:23:13.576Z,97504.00
2018-06-28T22:25:43.959Z,97504.00
2018-06-28T22:28:16.516Z,97501.00
2018-06-28T22:30:53.363Z,97485.00
2018-06-28T22:33:25.740Z,97490.00
2018-06-28T22:35:57.759Z,97495.00
2018-06-28T22:38:32.904Z,97491.00
2018-06-28T22:41:07.289Z,97491.00
2018-06-28T22:43:42.374Z,97494.00
2018-06-28T22:46:15.118Z,97495.00
2018-06-28T22:48:59.103Z,97493.00
2018-06-28T22:51:32.028Z,97495.00
2018-06-28T22:54:12.591Z,97495.00
2018-06-28T22:56:44.075Z,97497.00
2018-06-28T22:59:14.839Z,97494.00
2018-06-28T23:01:48.479Z,97490.00
2018-06-28T23:04:21.922Z,97499.00
2018-06-28T23:06:53.769Z,97493.00
2018-06-28T23:09:25.208Z,97494.00
2018-06-28T23:11:57.039Z,97493.00
2018-06-28T23:14:33.976Z,97495.00
2018-06-28T23:17:05.857Z,97493.00
2018-06-28T23:19:36.916Z,97482.00
2018-06-28T23:22:08.439Z,97493.00
2018-06-28T23:24:39.291Z,97489.00
2018-06-28T23:27:10.464Z,97492.00
2018-06-28T23:29:41.094Z,97495.00
2018-06-28T23:32:12.681Z,97491.00
2018-06-28T23:34:43.805Z,97490.00
2018-06-28T23:37:14.338Z,97490.00
2018-06-28T23:39:45.469Z,97485.00
2018-06-28T23:42:17.348Z,97490.00
2018-06-28T23:44:49.738Z,97488.00
2018-06-28T23:47:21.134Z,97487.00
2018-06-28T23:49:51.770Z,97491.00
2018-06-28T23:52:23.847Z,97495.00
2018-06-28T23:54:55.841Z,97488.00
2018-06-28T23:57:27.504Z,97486.00
2018-06-28T23:59:58.479Z,97483.00
